sensor_id;sensor_type;location;lat;lon;timestamp;P1;durP1;ratioP1;P2;durP2;ratioP2
56943;SDS011;42848;42.524;12.052;2023-11-21T00:02:21;5.75;;;2.38;;
56943;SDS011;42848;42.524;12.052;2023-11-21T00:04:47;5.03;;;2.25;;
56943;SDS011;42848;42.524;12.052;2023-11-21T00:07:14;4.32;;;2.40;;
56943;SDS011;42848;42.524;12.052;2023-11-21T00:09:40;8.43;;;2.45;;
56943;SDS011;42848;42.524;12.052;2023-11-21T00:12:07;5.28;;;2.47;;
56943;SDS011;42848;42.524;12.052;2023-11-21T00:14:39;6.13;;;2.65;;
56943;SDS011;42848;42.524;12.052;2023-11-21T00:17:05;3.53;;;2.10;;
56943;SDS011;42848;42.524;12.052;2023-11-21T00:19:32;5.25;;;2.30;;
56943;SDS011;42848;42.524;12.052;2023-11-21T00:21:58;4.40;;;2.00;;
56943;SDS011;42848;42.524;12.052;2023-11-21T00:24:24;6.50;;;2.28;;
56943;SDS011;42848;42.524;12.052;2023-11-21T00:26:51;5.00;;;2.15;;
56943;SDS011;42848;42.524;12.052;2023-11-21T00:29:18;4.90;;;2.00;;
56943;SDS011;42848;42.524;12.052;2023-11-21T00:31:44;6.25;;;2.25;;
56943;SDS011;42848;42.524;12.052;2023-11-21T00:34:13;4.95;;;2.53;;
56943;SDS011;42848;42.524;12.052;2023-11-21T00:36:39;6.50;;;2.50;;
56943;SDS011;42848;42.524;12.052;2023-11-21T00:39:06;5.40;;;2.45;;
56943;SDS011;42848;42.524;12.052;2023-11-21T00:41:32;4.38;;;2.33;;
56943;SDS011;42848;42.524;12.052;2023-11-21T00:43:57;4.13;;;2.40;;
56943;SDS011;42848;42.524;12.052;2023-11-21T00:46:24;3.88;;;2.13;;
56943;SDS011;42848;42.524;12.052;2023-11-21T00:48:53;4.18;;;2.30;;
56943;SDS011;42848;42.524;12.052;2023-11-21T00:51:19;4.43;;;2.55;;
56943;SDS011;42848;42.524;12.052;2023-11-21T00:53:46;5.40;;;2.60;;
56943;SDS011;42848;42.524;12.052;2023-11-21T00:56:13;5.55;;;2.55;;
56943;SDS011;42848;42.524;12.052;2023-11-21T00:58:39;4.95;;;2.55;;
56943;SDS011;42848;42.524;12.052;2023-11-21T01:01:09;6.50;;;2.67;;
56943;SDS011;42848;42.524;12.052;2023-11-21T01:03:34;6.28;;;2.80;;
56943;SDS011;42848;42.524;12.052;2023-11-21T01:06:00;5.35;;;2.70;;
56943;SDS011;42848;42.524;12.052;2023-11-21T01:08:26;5.32;;;2.78;;
56943;SDS011;42848;42.524;12.052;2023-11-21T01:10:52;4.97;;;2.72;;
56943;SDS011;42848;42.524;12.052;2023-11-21T01:13:17;6.25;;;2.97;;
56943;SDS011;42848;42.524;12.052;2023-11-21T01:15:43;6.05;;;2.83;;
56943;SDS011;42848;42.524;12.052;2023-11-21T01:18:10;5.82;;;2.88;;
56943;SDS011;42848;42.524;12.052;2023-11-21T01:20:36;6.18;;;3.00;;
56943;SDS011;42848;42.524;12.052;2023-11-21T01:23:01;6.13;;;2.80;;
56943;SDS011;42848;42.524;12.052;2023-11-21T01:25:27;4.97;;;3.00;;
56943;SDS011;42848;42.524;12.052;2023-11-21T01:27:52;5.35;;;3.03;;
56943;SDS011;42848;42.524;12.052;2023-11-21T01:30:18;5.32;;;2.60;;
56943;SDS011;42848;42.524;12.052;2023-11-21T01:32:44;5.15;;;3.10;;
56943;SDS011;42848;42.524;12.052;2023-11-21T01:35:10;6.40;;;2.70;;
56943;SDS011;42848;42.524;12.052;2023-11-21T01:37:39;4.60;;;2.70;;
56943;SDS011;42848;42.524;12.052;2023-11-21T01:40:04;5.18;;;2.75;;
56943;SDS011;42848;42.524;12.052;2023-11-21T01:42:35;5.53;;;2.47;;
56943;SDS011;42848;42.524;12.052;2023-11-21T01:45:01;6.05;;;2.55;;
56943;SDS011;42848;42.524;12.052;2023-11-21T01:47:30;5.22;;;2.80;;
56943;SDS011;42848;42.524;12.052;2023-11-21T01:49:58;5.10;;;3.05;;
56943;SDS011;42848;42.524;12.052;2023-11-21T01:52:25;5.22;;;2.95;;
56943;SDS011;42848;42.524;12.052;2023-11-21T01:54:51;5.70;;;2.70;;
56943;SDS011;42848;42.524;12.052;2023-11-21T01:57:19;4.78;;;2.40;;
56943;SDS011;42848;42.524;12.052;2023-11-21T01:59:45;6.03;;;2.67;;
56943;SDS011;42848;42.524;12.052;2023-11-21T02:02:14;5.38;;;2.60;;
56943;SDS011;42848;42.524;12.052;2023-11-21T02:04:40;3.92;;;2.17;;
56943;SDS011;42848;42.524;12.052;2023-11-21T02:07:06;6.55;;;2.60;;
56943;SDS011;42848;42.524;12.052;2023-11-21T02:09:32;4.10;;;1.92;;
56943;SDS011;42848;42.524;12.052;2023-11-21T02:11:59;4.50;;;1.98;;
56943;SDS011;42848;42.524;12.052;2023-11-21T02:14:25;3.80;;;2.05;;
56943;SDS011;42848;42.524;12.052;2023-11-21T02:16:53;3.40;;;2.08;;
56943;SDS011;42848;42.524;12.052;2023-11-21T02:19:21;5.60;;;2.10;;
56943;SDS011;42848;42.524;12.052;2023-11-21T02:21:51;5.10;;;2.17;;
56943;SDS011;42848;42.524;12.052;2023-11-21T02:24:21;6.13;;;2.10;;
56943;SDS011;42848;42.524;12.052;2023-11-21T02:26:48;4.75;;;2.00;;
56943;SDS011;42848;42.524;12.052;2023-11-21T02:29:17;4.05;;;2.00;;
56943;SDS011;42848;42.524;12.052;2023-11-21T02:31:47;4.95;;;1.90;;
56943;SDS011;42848;42.524;12.052;2023-11-21T02:34:17;5.65;;;1.90;;
56943;SDS011;42848;42.524;12.052;2023-11-21T02:36:43;3.97;;;1.60;;
56943;SDS011;42848;42.524;12.052;2023-11-21T02:39:10;4.15;;;1.80;;
56943;SDS011;42848;42.524;12.052;2023-11-21T02:41:37;4.63;;;1.85;;
56943;SDS011;42848;42.524;12.052;2023-11-21T02:44:03;5.05;;;1.80;;
56943;SDS011;42848;42.524;12.052;2023-11-21T02:46:31;4.43;;;1.58;;
56943;SDS011;42848;42.524;12.052;2023-11-21T02:48:59;4.90;;;1.90;;
56943;SDS011;42848;42.524;12.052;2023-11-21T02:51:29;6.07;;;1.80;;
56943;SDS011;42848;42.524;12.052;2023-11-21T02:53:55;3.60;;;1.70;;
56943;SDS011;42848;42.524;12.052;2023-11-21T02:56:26;4.38;;;2.03;;
56943;SDS011;42848;42.524;12.052;2023-11-21T02:58:52;6.47;;;1.95;;
56943;SDS011;42848;42.524;12.052;2023-11-21T03:01:21;5.75;;;1.75;;
56943;SDS011;42848;42.524;12.052;2023-11-21T03:03:46;3.58;;;1.83;;
56943;SDS011;42848;42.524;12.052;2023-11-21T03:06:13;4.93;;;2.13;;
56943;SDS011;42848;42.524;12.052;2023-11-21T03:08:39;4.57;;;1.98;;
56943;SDS011;42848;42.524;12.052;2023-11-21T03:11:04;5.38;;;1.77;;
56943;SDS011;42848;42.524;12.052;2023-11-21T03:13:30;5.00;;;1.80;;
56943;SDS011;42848;42.524;12.052;2023-11-21T03:15:56;6.35;;;2.03;;
56943;SDS011;42848;42.524;12.052;2023-11-21T03:18:21;4.57;;;1.80;;
56943;SDS011;42848;42.524;12.052;2023-11-21T03:20:48;3.92;;;2.00;;
56943;SDS011;42848;42.524;12.052;2023-11-21T03:23:13;4.28;;;2.00;;
56943;SDS011;42848;42.524;12.052;2023-11-21T03:25:40;5.03;;;1.90;;
56943;SDS011;42848;42.524;12.052;2023-11-21T03:28:05;4.07;;;1.83;;
56943;SDS011;42848;42.524;12.052;2023-11-21T03:30:33;5.57;;;1.85;;
56943;SDS011;42848;42.524;12.052;2023-11-21T03:32:59;4.28;;;1.60;;
56943;SDS011;42848;42.524;12.052;2023-11-21T03:35:24;3.90;;;1.83;;
56943;SDS011;42848;42.524;12.052;2023-11-21T03:37:51;4.57;;;1.80;;
56943;SDS011;42848;42.524;12.052;2023-11-21T03:40:17;3.70;;;1.58;;
56943;SDS011;42848;42.524;12.052;2023-11-21T03:42:42;4.05;;;1.80;;
56943;SDS011;42848;42.524;12.052;2023-11-21T03:45:08;4.13;;;1.70;;
56943;SDS011;42848;42.524;12.052;2023-11-21T03:47:35;4.10;;;1.70;;
56943;SDS011;42848;42.524;12.052;2023-11-21T03:50:00;3.30;;;1.77;;
56943;SDS011;42848;42.524;12.052;2023-11-21T03:52:26;5.60;;;1.90;;
56943;SDS011;42848;42.524;12.052;2023-11-21T03:54:53;5.88;;;2.25;;
56943;SDS011;42848;42.524;12.052;2023-11-21T03:57:44;6.10;;;1.90;;
56943;SDS011;42848;42.524;12.052;2023-11-21T04:00:13;4.40;;;1.88;;
56943;SDS011;42848;42.524;12.052;2023-11-21T04:02:39;4.97;;;1.90;;
56943;SDS011;42848;42.524;12.052;2023-11-21T04:05:05;3.33;;;1.70;;
56943;SDS011;42848;42.524;12.052;2023-11-21T04:07:32;4.00;;;1.80;;
56943;SDS011;42848;42.524;12.052;2023-11-21T04:09:59;4.15;;;1.70;;
56943;SDS011;42848;42.524;12.052;2023-11-21T04:12:24;6.40;;;2.00;;
56943;SDS011;42848;42.524;12.052;2023-11-21T04:14:50;5.70;;;1.70;;
56943;SDS011;42848;42.524;12.052;2023-11-21T04:17:18;7.43;;;1.90;;
56943;SDS011;42848;42.524;12.052;2023-11-21T04:19:45;5.65;;;1.90;;
56943;SDS011;42848;42.524;12.052;2023-11-21T04:22:11;3.75;;;1.73;;
56943;SDS011;42848;42.524;12.052;2023-11-21T04:24:37;5.47;;;2.00;;
56943;SDS011;42848;42.524;12.052;2023-11-21T04:27:03;4.30;;;1.80;;
56943;SDS011;42848;42.524;12.052;2023-11-21T04:29:28;4.50;;;1.92;;
56943;SDS011;42848;42.524;12.052;2023-11-21T04:31:55;3.55;;;1.75;;
56943;SDS011;42848;42.524;12.052;2023-11-21T04:34:20;4.07;;;1.80;;
56943;SDS011;42848;42.524;12.052;2023-11-21T04:36:46;5.05;;;2.00;;
56943;SDS011;42848;42.524;12.052;2023-11-21T04:39:11;4.53;;;1.73;;
56943;SDS011;42848;42.524;12.052;2023-11-21T04:41:37;7.50;;;3.20;;
56943;SDS011;42848;42.524;12.052;2023-11-21T04:44:05;6.70;;;4.18;;
56943;SDS011;42848;42.524;12.052;2023-11-21T04:46:31;5.72;;;2.30;;
56943;SDS011;42848;42.524;12.052;2023-11-21T04:48:57;3.67;;;2.72;;
56943;SDS011;42848;42.524;12.052;2023-11-21T04:51:24;4.65;;;2.10;;
56943;SDS011;42848;42.524;12.052;2023-11-21T04:53:50;6.60;;;2.17;;
56943;SDS011;42848;42.524;12.052;2023-11-21T04:56:15;4.22;;;1.83;;
56943;SDS011;42848;42.524;12.052;2023-11-21T04:58:41;5.38;;;1.70;;
56943;SDS011;42848;42.524;12.052;2023-11-21T05:01:07;3.80;;;1.50;;
56943;SDS011;42848;42.524;12.052;2023-11-21T05:03:33;6.20;;;1.90;;
56943;SDS011;42848;42.524;12.052;2023-11-21T05:05:59;5.50;;;1.83;;
56943;SDS011;42848;42.524;12.052;2023-11-21T05:08:25;4.35;;;1.77;;
56943;SDS011;42848;42.524;12.052;2023-11-21T05:10:51;4.57;;;2.20;;
56943;SDS011;42848;42.524;12.052;2023-11-21T05:13:19;5.47;;;2.35;;
56943;SDS011;42848;42.524;12.052;2023-11-21T05:15:45;4.55;;;3.00;;
56943;SDS011;42848;42.524;12.052;2023-11-21T05:18:12;6.15;;;3.55;;
56943;SDS011;42848;42.524;12.052;2023-11-21T05:20:39;4.75;;;2.30;;
56943;SDS011;42848;42.524;12.052;2023-11-21T05:23:06;4.65;;;1.73;;
56943;SDS011;42848;42.524;12.052;2023-11-21T05:25:33;5.78;;;1.90;;
56943;SDS011;42848;42.524;12.052;2023-11-21T05:27:59;4.38;;;1.70;;
56943;SDS011;42848;42.524;12.052;2023-11-21T05:30:26;3.75;;;1.50;;
56943;SDS011;42848;42.524;12.052;2023-11-21T05:32:53;3.72;;;1.70;;
56943;SDS011;42848;42.524;12.052;2023-11-21T05:35:19;3.95;;;1.67;;
56943;SDS011;42848;42.524;12.052;2023-11-21T05:37:47;5.10;;;1.50;;
56943;SDS011;42848;42.524;12.052;2023-11-21T05:40:12;6.20;;;1.73;;
56943;SDS011;42848;42.524;12.052;2023-11-21T05:42:39;3.80;;;1.50;;
56943;SDS011;42848;42.524;12.052;2023-11-21T05:45:06;4.68;;;1.70;;
56943;SDS011;42848;42.524;12.052;2023-11-21T05:47:40;5.00;;;1.60;;
56943;SDS011;42848;42.524;12.052;2023-11-21T05:50:11;4.28;;;1.88;;
56943;SDS011;42848;42.524;12.052;2023-11-21T05:52:39;5.57;;;2.50;;
56943;SDS011;42848;42.524;12.052;2023-11-21T05:55:06;4.57;;;2.00;;
56943;SDS011;42848;42.524;12.052;2023-11-21T05:57:33;8.88;;;2.17;;
56943;SDS011;42848;42.524;12.052;2023-11-21T06:00:11;4.43;;;2.42;;
56943;SDS011;42848;42.524;12.052;2023-11-21T06:02:51;5.38;;;2.30;;
56943;SDS011;42848;42.524;12.052;2023-11-21T06:05:18;5.25;;;2.08;;
56943;SDS011;42848;42.524;12.052;2023-11-21T06:07:48;5.68;;;2.58;;
56943;SDS011;42848;42.524;12.052;2023-11-21T06:10:15;5.30;;;2.65;;
56943;SDS011;42848;42.524;12.052;2023-11-21T06:12:43;4.00;;;1.92;;
56943;SDS011;42848;42.524;12.052;2023-11-21T06:15:09;6.30;;;1.98;;
56943;SDS011;42848;42.524;12.052;2023-11-21T06:17:38;5.60;;;1.92;;
56943;SDS011;42848;42.524;12.052;2023-11-21T06:20:07;5.38;;;1.98;;
56943;SDS011;42848;42.524;12.052;2023-11-21T06:22:39;6.43;;;2.60;;
56943;SDS011;42848;42.524;12.052;2023-11-21T06:25:07;3.65;;;2.40;;
56943;SDS011;42848;42.524;12.052;2023-11-21T06:27:40;3.58;;;2.33;;
56943;SDS011;42848;42.524;12.052;2023-11-21T06:30:08;4.55;;;2.10;;
56943;SDS011;42848;42.524;12.052;2023-11-21T06:32:35;5.20;;;2.97;;
56943;SDS011;42848;42.524;12.052;2023-11-21T06:35:02;5.10;;;2.58;;
56943;SDS011;42848;42.524;12.052;2023-11-21T06:37:29;6.05;;;2.58;;
56943;SDS011;42848;42.524;12.052;2023-11-21T06:39:55;5.85;;;2.22;;
56943;SDS011;42848;42.524;12.052;2023-11-21T06:42:23;8.02;;;2.33;;
56943;SDS011;42848;42.524;12.052;2023-11-21T06:44:50;8.13;;;2.20;;
56943;SDS011;42848;42.524;12.052;2023-11-21T06:47:17;3.97;;;1.75;;
56943;SDS011;42848;42.524;12.052;2023-11-21T06:49:45;4.20;;;2.05;;
56943;SDS011;42848;42.524;12.052;2023-11-21T06:52:13;4.32;;;2.08;;
56943;SDS011;42848;42.524;12.052;2023-11-21T06:54:39;3.92;;;1.80;;
56943;SDS011;42848;42.524;12.052;2023-11-21T06:57:05;5.05;;;1.77;;
56943;SDS011;42848;42.524;12.052;2023-11-21T06:59:30;4.00;;;1.58;;
56943;SDS011;42848;42.524;12.052;2023-11-21T07:01:56;3.83;;;1.60;;
56943;SDS011;42848;42.524;12.052;2023-11-21T07:04:22;8.68;;;1.90;;
56943;SDS011;42848;42.524;12.052;2023-11-21T07:06:47;6.68;;;2.80;;
56943;SDS011;42848;42.524;12.052;2023-11-21T07:09:13;4.93;;;1.95;;
56943;SDS011;42848;42.524;12.052;2023-11-21T07:11:38;5.13;;;1.75;;
56943;SDS011;42848;42.524;12.052;2023-11-21T07:14:04;4.47;;;1.83;;
56943;SDS011;42848;42.524;12.052;2023-11-21T07:16:34;9.20;;;4.97;;
56943;SDS011;42848;42.524;12.052;2023-11-21T07:19:02;8.05;;;4.57;;
56943;SDS011;42848;42.524;12.052;2023-11-21T07:21:34;6.68;;;3.00;;
56943;SDS011;42848;42.524;12.052;2023-11-21T07:24:01;6.65;;;2.55;;
56943;SDS011;42848;42.524;12.052;2023-11-21T07:26:27;6.95;;;3.05;;
56943;SDS011;42848;42.524;12.052;2023-11-21T07:28:53;7.15;;;2.78;;
56943;SDS011;42848;42.524;12.052;2023-11-21T07:31:19;4.30;;;2.22;;
56943;SDS011;42848;42.524;12.052;2023-11-21T07:33:46;6.18;;;2.40;;
56943;SDS011;42848;42.524;12.052;2023-11-21T07:36:15;5.35;;;2.42;;
56943;SDS011;42848;42.524;12.052;2023-11-21T07:38:41;5.10;;;2.50;;
56943;SDS011;42848;42.524;12.052;2023-11-21T07:41:08;5.32;;;2.15;;
56943;SDS011;42848;42.524;12.052;2023-11-21T07:43:34;4.97;;;2.50;;
56943;SDS011;42848;42.524;12.052;2023-11-21T07:46:01;16.58;;;13.88;;
56943;SDS011;42848;42.524;12.052;2023-11-21T07:48:29;4.50;;;2.72;;
56943;SDS011;42848;42.524;12.052;2023-11-21T07:50:55;5.07;;;2.20;;
56943;SDS011;42848;42.524;12.052;2023-11-21T07:53:21;4.32;;;1.98;;
56943;SDS011;42848;42.524;12.052;2023-11-21T07:55:47;5.30;;;2.10;;
56943;SDS011;42848;42.524;12.052;2023-11-21T07:58:12;5.60;;;2.53;;
56943;SDS011;42848;42.524;12.052;2023-11-21T08:00:38;4.63;;;2.30;;
56943;SDS011;42848;42.524;12.052;2023-11-21T08:03:05;5.22;;;2.50;;
56943;SDS011;42848;42.524;12.052;2023-11-21T08:05:33;6.43;;;2.90;;
56943;SDS011;42848;42.524;12.052;2023-11-21T08:07:59;3.92;;;2.53;;
56943;SDS011;42848;42.524;12.052;2023-11-21T08:10:25;7.68;;;3.22;;
56943;SDS011;42848;42.524;12.052;2023-11-21T08:12:51;6.18;;;2.30;;
56943;SDS011;42848;42.524;12.052;2023-11-21T08:15:17;6.15;;;2.03;;
56943;SDS011;42848;42.524;12.052;2023-11-21T08:17:43;5.63;;;2.00;;
56943;SDS011;42848;42.524;12.052;2023-11-21T08:20:09;5.10;;;1.60;;
56943;SDS011;42848;42.524;12.052;2023-11-21T08:22:36;4.50;;;1.63;;
56943;SDS011;42848;42.524;12.052;2023-11-21T08:25:02;6.13;;;1.80;;
56943;SDS011;42848;42.524;12.052;2023-11-21T08:27:29;4.28;;;1.60;;
56943;SDS011;42848;42.524;12.052;2023-11-21T08:29:55;3.60;;;1.52;;
56943;SDS011;42848;42.524;12.052;2023-11-21T08:32:22;3.85;;;1.50;;
56943;SDS011;42848;42.524;12.052;2023-11-21T08:34:47;9.73;;;1.85;;
56943;SDS011;42848;42.524;12.052;2023-11-21T08:37:16;6.60;;;1.90;;
56943;SDS011;42848;42.524;12.052;2023-11-21T08:39:46;5.28;;;1.70;;
56943;SDS011;42848;42.524;12.052;2023-11-21T08:42:13;4.90;;;1.65;;
56943;SDS011;42848;42.524;12.052;2023-11-21T08:44:40;4.40;;;1.65;;
56943;SDS011;42848;42.524;12.052;2023-11-21T08:47:06;6.70;;;1.55;;
56943;SDS011;42848;42.524;12.052;2023-11-21T08:49:32;3.85;;;1.50;;
56943;SDS011;42848;42.524;12.052;2023-11-21T08:51:58;3.83;;;1.52;;
56943;SDS011;42848;42.524;12.052;2023-11-21T08:54:25;5.07;;;1.73;;
56943;SDS011;42848;42.524;12.052;2023-11-21T08:56:54;4.85;;;1.60;;
56943;SDS011;42848;42.524;12.052;2023-11-21T08:59:20;5.78;;;2.03;;
56943;SDS011;42848;42.524;12.052;2023-11-21T09:01:46;5.68;;;2.03;;
56943;SDS011;42848;42.524;12.052;2023-11-21T09:04:12;7.93;;;2.10;;
56943;SDS011;42848;42.524;12.052;2023-11-21T09:06:39;6.35;;;2.78;;
56943;SDS011;42848;42.524;12.052;2023-11-21T09:09:05;4.25;;;1.80;;
56943;SDS011;42848;42.524;12.052;2023-11-21T09:11:31;5.45;;;1.70;;
56943;SDS011;42848;42.524;12.052;2023-11-21T09:13:59;6.57;;;2.08;;
56943;SDS011;42848;42.524;12.052;2023-11-21T09:16:25;4.55;;;1.70;;
56943;SDS011;42848;42.524;12.052;2023-11-21T09:18:51;5.50;;;1.83;;
56943;SDS011;42848;42.524;12.052;2023-11-21T09:21:17;3.80;;;2.08;;
56943;SDS011;42848;42.524;12.052;2023-11-21T09:23:46;7.18;;;2.40;;
56943;SDS011;42848;42.524;12.052;2023-11-21T09:26:14;7.18;;;2.80;;
56943;SDS011;42848;42.524;12.052;2023-11-21T09:28:41;7.25;;;2.53;;
56943;SDS011;42848;42.524;12.052;2023-11-21T09:31:11;5.90;;;2.10;;
56943;SDS011;42848;42.524;12.052;2023-11-21T09:33:37;5.13;;;2.10;;
56943;SDS011;42848;42.524;12.052;2023-11-21T09:36:03;5.28;;;1.80;;
56943;SDS011;42848;42.524;12.052;2023-11-21T09:38:30;5.80;;;1.70;;
56943;SDS011;42848;42.524;12.052;2023-11-21T09:40:56;4.50;;;1.55;;
56943;SDS011;42848;42.524;12.052;2023-11-21T09:43:23;5.47;;;1.67;;
56943;SDS011;42848;42.524;12.052;2023-11-21T09:45:59;4.70;;;1.42;;
56943;SDS011;42848;42.524;12.052;2023-11-21T09:48:27;3.80;;;1.65;;
56943;SDS011;42848;42.524;12.052;2023-11-21T09:50:55;5.70;;;1.75;;
56943;SDS011;42848;42.524;12.052;2023-11-21T09:53:23;4.63;;;2.00;;
56943;SDS011;42848;42.524;12.052;2023-11-21T09:55:53;6.65;;;2.00;;
56943;SDS011;42848;42.524;12.052;2023-11-21T09:58:19;6.05;;;2.35;;
56943;SDS011;42848;42.524;12.052;2023-11-21T10:00:47;5.10;;;1.80;;
56943;SDS011;42848;42.524;12.052;2023-11-21T10:03:14;5.20;;;1.70;;
56943;SDS011;42848;42.524;12.052;2023-11-21T10:05:44;4.07;;;1.50;;
56943;SDS011;42848;42.524;12.052;2023-11-21T10:08:11;4.13;;;1.77;;
56943;SDS011;42848;42.524;12.052;2023-11-21T10:10:38;7.32;;;2.20;;
56943;SDS011;42848;42.524;12.052;2023-11-21T10:13:11;9.95;;;2.30;;
56943;SDS011;42848;42.524;12.052;2023-11-21T10:15:38;4.45;;;1.90;;
56943;SDS011;42848;42.524;12.052;2023-11-21T10:18:06;4.32;;;1.50;;
56943;SDS011;42848;42.524;12.052;2023-11-21T10:20:32;7.10;;;2.05;;
56943;SDS011;42848;42.524;12.052;2023-11-21T10:22:59;6.40;;;1.90;;
56943;SDS011;42848;42.524;12.052;2023-11-21T10:25:27;5.90;;;1.90;;
56943;SDS011;42848;42.524;12.052;2023-11-21T10:27:57;5.82;;;2.00;;
56943;SDS011;42848;42.524;12.052;2023-11-21T10:30:35;5.63;;;2.00;;
56943;SDS011;42848;42.524;12.052;2023-11-21T10:33:03;6.03;;;1.85;;
56943;SDS011;42848;42.524;12.052;2023-11-21T10:38:07;4.53;;;1.58;;
56943;SDS011;42848;42.524;12.052;2023-11-21T10:40:38;4.32;;;1.80;;
56943;SDS011;42848;42.524;12.052;2023-11-21T10:43:07;5.28;;;1.95;;
56943;SDS011;42848;42.524;12.052;2023-11-21T10:45:35;6.47;;;1.55;;
56943;SDS011;42848;42.524;12.052;2023-11-21T10:48:04;4.93;;;1.40;;
56943;SDS011;42848;42.524;12.052;2023-11-21T10:50:33;4.57;;;1.42;;
56943;SDS011;42848;42.524;12.052;2023-11-21T10:53:03;5.68;;;1.52;;
56943;SDS011;42848;42.524;12.052;2023-11-21T10:55:30;7.38;;;1.40;;
56943;SDS011;42848;42.524;12.052;2023-11-21T10:58:01;5.45;;;1.42;;
56943;SDS011;42848;42.524;12.052;2023-11-21T11:00:30;5.85;;;1.50;;
56943;SDS011;42848;42.524;12.052;2023-11-21T11:02:57;4.78;;;1.60;;
56943;SDS011;42848;42.524;12.052;2023-11-21T11:05:25;5.20;;;1.50;;
56943;SDS011;42848;42.524;12.052;2023-11-21T11:08:04;6.43;;;1.58;;
56943;SDS011;42848;42.524;12.052;2023-11-21T11:10:33;4.35;;;1.40;;
56943;SDS011;42848;42.524;12.052;2023-11-21T11:12:59;6.30;;;1.50;;
56943;SDS011;42848;42.524;12.052;2023-11-21T11:15:25;5.55;;;1.45;;
56943;SDS011;42848;42.524;12.052;2023-11-21T11:17:52;4.93;;;1.33;;
56943;SDS011;42848;42.524;12.052;2023-11-21T11:20:22;3.65;;;1.48;;
56943;SDS011;42848;42.524;12.052;2023-11-21T11:25:57;6.03;;;1.50;;
56943;SDS011;42848;42.524;12.052;2023-11-21T11:28:29;5.18;;;1.30;;
56943;SDS011;42848;42.524;12.052;2023-11-21T11:33:53;5.53;;;1.98;;
56943;SDS011;42848;42.524;12.052;2023-11-21T11:39:30;5.07;;;1.50;;
56943;SDS011;42848;42.524;12.052;2023-11-21T11:42:02;5.05;;;1.25;;
56943;SDS011;42848;42.524;12.052;2023-11-21T11:47:29;3.80;;;1.60;;
56943;SDS011;42848;42.524;12.052;2023-11-21T11:55:05;7.40;;;1.70;;
56943;SDS011;42848;42.524;12.052;2023-11-21T11:57:35;7.10;;;2.40;;
56943;SDS011;42848;42.524;12.052;2023-11-21T12:02:53;5.60;;;1.80;;
56943;SDS011;42848;42.524;12.052;2023-11-21T12:05:22;6.30;;;2.33;;
56943;SDS011;42848;42.524;12.052;2023-11-21T12:10:22;4.88;;;2.10;;
56943;SDS011;42848;42.524;12.052;2023-11-21T12:12:54;8.88;;;2.20;;
56943;SDS011;42848;42.524;12.052;2023-11-21T12:15:22;7.45;;;2.85;;
56943;SDS011;42848;42.524;12.052;2023-11-21T12:17:50;8.98;;;2.85;;
56943;SDS011;42848;42.524;12.052;2023-11-21T12:20:20;9.23;;;2.58;;
56943;SDS011;42848;42.524;12.052;2023-11-21T12:22:48;8.23;;;2.70;;
56943;SDS011;42848;42.524;12.052;2023-11-21T12:25:17;6.72;;;2.60;;
56943;SDS011;42848;42.524;12.052;2023-11-21T12:27:44;7.50;;;2.28;;
56943;SDS011;42848;42.524;12.052;2023-11-21T12:30:16;10.75;;;2.85;;
56943;SDS011;42848;42.524;12.052;2023-11-21T12:32:43;7.30;;;2.00;;
56943;SDS011;42848;42.524;12.052;2023-11-21T12:35:12;6.22;;;1.80;;
56943;SDS011;42848;42.524;12.052;2023-11-21T12:37:39;6.85;;;1.90;;
56943;SDS011;42848;42.524;12.052;2023-11-21T12:40:08;6.47;;;1.90;;
56943;SDS011;42848;42.524;12.052;2023-11-21T12:42:37;5.63;;;2.25;;
56943;SDS011;42848;42.524;12.052;2023-11-21T12:47:49;7.57;;;2.40;;
56943;SDS011;42848;42.524;12.052;2023-11-21T12:50:20;7.57;;;2.10;;
56943;SDS011;42848;42.524;12.052;2023-11-21T12:52:54;14.70;;;4.57;;
56943;SDS011;42848;42.524;12.052;2023-11-21T12:55:24;9.38;;;3.40;;
56943;SDS011;42848;42.524;12.052;2023-11-21T12:57:52;9.77;;;3.30;;
56943;SDS011;42848;42.524;12.052;2023-11-21T13:00:35;10.50;;;4.43;;
56943;SDS011;42848;42.524;12.052;2023-11-21T13:03:05;11.10;;;4.72;;
56943;SDS011;42848;42.524;12.052;2023-11-21T13:05:35;9.25;;;3.83;;
56943;SDS011;42848;42.524;12.052;2023-11-21T13:08:10;8.95;;;4.75;;
56943;SDS011;42848;42.524;12.052;2023-11-21T13:10:39;13.52;;;5.38;;
56943;SDS011;42848;42.524;12.052;2023-11-21T13:13:08;9.57;;;3.47;;
56943;SDS011;42848;42.524;12.052;2023-11-21T13:15:40;7.28;;;2.15;;
56943;SDS011;42848;42.524;12.052;2023-11-21T13:18:13;10.45;;;2.38;;
56943;SDS011;42848;42.524;12.052;2023-11-21T13:20:39;8.40;;;2.42;;
56943;SDS011;42848;42.524;12.052;2023-11-21T13:23:07;8.32;;;2.80;;
56943;SDS011;42848;42.524;12.052;2023-11-21T13:25:34;8.25;;;2.88;;
56943;SDS011;42848;42.524;12.052;2023-11-21T13:27:59;13.30;;;7.57;;
56943;SDS011;42848;42.524;12.052;2023-11-21T13:30:26;10.05;;;3.80;;
56943;SDS011;42848;42.524;12.052;2023-11-21T13:32:53;10.05;;;3.22;;
56943;SDS011;42848;42.524;12.052;2023-11-21T13:35:22;10.80;;;4.85;;
56943;SDS011;42848;42.524;12.052;2023-11-21T13:38:12;9.93;;;3.85;;
56943;SDS011;42848;42.524;12.052;2023-11-21T13:40:52;11.05;;;3.53;;
56943;SDS011;42848;42.524;12.052;2023-11-21T13:43:20;14.27;;;4.55;;
56943;SDS011;42848;42.524;12.052;2023-11-21T13:45:49;9.82;;;3.75;;
56943;SDS011;42848;42.524;12.052;2023-11-21T13:48:23;7.97;;;3.33;;
56943;SDS011;42848;42.524;12.052;2023-11-21T13:51:06;11.00;;;3.03;;
56943;SDS011;42848;42.524;12.052;2023-11-21T13:53:43;10.90;;;2.90;;
56943;SDS011;42848;42.524;12.052;2023-11-21T13:56:11;9.02;;;2.58;;
56943;SDS011;42848;42.524;12.052;2023-11-21T13:58:37;9.70;;;2.88;;
56943;SDS011;42848;42.524;12.052;2023-11-21T14:01:20;8.43;;;2.60;;
56943;SDS011;42848;42.524;12.052;2023-11-21T14:03:55;7.78;;;3.22;;
56943;SDS011;42848;42.524;12.052;2023-11-21T14:06:27;13.65;;;5.88;;
56943;SDS011;42848;42.524;12.052;2023-11-21T14:09:00;14.15;;;6.22;;
56943;SDS011;42848;42.524;12.052;2023-11-21T14:11:30;14.05;;;7.65;;
56943;SDS011;42848;42.524;12.052;2023-11-21T14:13:56;11.75;;;5.80;;
56943;SDS011;42848;42.524;12.052;2023-11-21T14:16:24;14.10;;;4.57;;
56943;SDS011;42848;42.524;12.052;2023-11-21T14:18:50;13.20;;;4.82;;
56943;SDS011;42848;42.524;12.052;2023-11-21T14:21:26;8.73;;;3.85;;
56943;SDS011;42848;42.524;12.052;2023-11-21T14:23:52;13.35;;;4.55;;
56943;SDS011;42848;42.524;12.052;2023-11-21T14:26:20;14.75;;;6.50;;
56943;SDS011;42848;42.524;12.052;2023-11-21T14:28:45;11.45;;;3.78;;
56943;SDS011;42848;42.524;12.052;2023-11-21T14:31:14;16.15;;;5.10;;
56943;SDS011;42848;42.524;12.052;2023-11-21T14:33:42;16.00;;;5.13;;
56943;SDS011;42848;42.524;12.052;2023-11-21T14:36:10;21.63;;;10.35;;
56943;SDS011;42848;42.524;12.052;2023-11-21T14:38:36;27.15;;;12.80;;
56943;SDS011;42848;42.524;12.052;2023-11-21T14:41:05;16.58;;;8.65;;
56943;SDS011;42848;42.524;12.052;2023-11-21T14:43:37;15.45;;;5.60;;
56943;SDS011;42848;42.524;12.052;2023-11-21T14:46:04;13.63;;;5.90;;
56943;SDS011;42848;42.524;12.052;2023-11-21T14:48:34;17.58;;;6.35;;
56943;SDS011;42848;42.524;12.052;2023-11-21T14:51:12;9.98;;;4.03;;
56943;SDS011;42848;42.524;12.052;2023-11-21T14:53:53;9.82;;;4.20;;
56943;SDS011;42848;42.524;12.052;2023-11-21T14:56:20;8.63;;;3.67;;
56943;SDS011;42848;42.524;12.052;2023-11-21T14:58:54;16.15;;;6.78;;
56943;SDS011;42848;42.524;12.052;2023-11-21T15:01:22;19.27;;;6.00;;
56943;SDS011;42848;42.524;12.052;2023-11-21T15:04:21;14.90;;;4.78;;
56943;SDS011;42848;42.524;12.052;2023-11-21T15:07:04;18.73;;;8.65;;